Time;durP1;ratioP1;P1;durP2;ratioP2;P2;SDS_P1;SDS_P2;PMS_P1;PMS_P2;Temp;Humidity;BMP_temperature;BMP_pressure;BME280_temperature;BME280_humidity;BME280_pressure;Samples;Min_cycle;Max_cycle;Signal;HPM_P1;HPM_P2
2021/06/03 00:00:50;;;;;;;;;17.75;17.00;;;;;17.79;42.49;99503.59;6210987;27;125479;-61
2021/06/03 00:03:53;;;;;;;;;18.20;16.20;;;;;17.77;42.57;99503.84;6208907;28;126212;-61
2021/06/03 00:06:55;;;;;;;;;18.00;16.00;;;;;17.64;43.10;99493.31;6211392;28;124229;-61
2021/06/03 00:09:58;;;;;;;;;16.80;16.00;;;;;17.55;43.02;99495.59;6200536;28;124717;-61
2021/06/03 00:13:04;;;;;;;;;16.80;16.20;;;;;17.46;43.23;99496.28;6212920;28;126214;-61
2021/06/03 00:16:08;;;;;;;;;15.75;15.75;;;;;17.39;43.51;99498.38;6212738;28;125980;-61
2021/06/03 00:19:12;;;;;;;;;16.40;13.40;;;;;17.34;43.41;99501.88;6196583;28;126646;-62
2021/06/03 00:22:15;;;;;;;;;16.00;15.00;;;;;17.28;43.52;99500.13;6187762;28;124649;-62
2021/06/03 00:25:18;;;;;;;;;15.75;14.50;;;;;17.22;43.58;99495.69;6205373;28;96752;-61
2021/06/03 00:28:22;;;;;;;;;18.00;15.00;;;;;17.17;43.55;99498.31;6201458;28;124813;-62
2021/06/03 00:31:25;;;;;;;;;17.60;16.20;;;;;17.10;43.67;99503.97;6210991;28;127255;-61
2021/06/03 00:34:28;;;;;;;;;17.33;16.33;;;;;17.10;43.93;99505.84;6212508;28;126389;-61
2021/06/03 00:37:31;;;;;;;;;17.40;17.00;;;;;17.03;44.08;99514.19;6189192;28;126289;-62
2021/06/03 00:40:38;;;;;;;;;18.75;17.00;;;;;16.99;44.22;99517.66;6202944;28;125763;-62
2021/06/03 00:43:42;;;;;;;;;18.00;17.00;;;;;16.96;44.29;99523.63;6212031;28;126107;-61
2021/06/03 00:46:44;;;;;;;;;17.00;16.40;;;;;16.69;45.12;99513.34;6211781;28;126450;-61
2021/06/03 00:49:47;;;;;;;;;16.00;15.60;;;;;16.81;44.84;99532.34;6201469;28;127089;-61
2021/06/03 00:52:50;;;;;;;;;15.00;13.60;;;;;16.63;44.89;99508.88;6196541;28;126180;-62
2021/06/03 00:55:57;;;;;;;;;17.00;15.40;;;;;16.73;45.01;99530.84;6209733;28;124685;-61
2021/06/03 00:59:05;;;;;;;;;15.00;13.00;;;;;16.56;45.21;99529.16;6180867;28;125469;-61
2021/06/03 01:02:08;;;;;;;;;13.00;12.00;;;;;16.40;45.62;99537.03;6204497;28;124704;-62
2021/06/03 01:05:18;;;;;;;;;17.00;15.00;;;;;16.32;45.57;99536.59;6203623;28;125944;-61
2021/06/03 01:08:24;;;;;;;;;15.40;14.40;;;;;16.29;45.62;99537.91;6203804;28;124657;-61
2021/06/03 01:11:32;;;;;;;;;14.60;14.40;;;;;16.24;45.51;99531.53;6215947;27;124217;-61
2021/06/03 01:14:43;;;;;;;;;14.00;13.40;;;;;16.15;45.98;99527.56;6205704;28;124683;-63
2021/06/03 01:17:47;;;;;;;;;15.40;14.00;;;;;16.21;45.54;99530.13;6185857;28;126960;-61
2021/06/03 01:20:56;;;;;;;;;17.00;15.00;;;;;16.24;45.71;99531.53;6205707;28;124639;-61
2021/06/03 01:24:17;;;;;;;;;14.00;12.50;;;;;16.19;45.71;99528.72;6204002;28;127083;-61
2021/06/03 01:27:25;;;;;;;;;16.40;15.40;;;;;16.20;45.57;99528.47;6188203;28;124322;-62
2021/06/03 01:30:33;;;;;;;;;12.00;11.60;;;;;16.19;45.64;99528.72;6206978;28;126414;-61
2021/06/03 01:33:41;;;;;;;;;15.40;14.80;;;;;16.22;45.59;99533.69;6191603;28;123738;-61
2021/06/03 01:36:45;;;;;;;;;13.00;12.40;;;;;16.20;45.50;99533.09;6225435;28;125714;-62
2021/06/03 01:39:49;;;;;;;;;15.60;15.60;;;;;16.01;45.23;99516.13;6196075;28;124778;-62
2021/06/03 01:42:52;;;;;;;;;16.00;15.00;;;;;16.22;45.29;99533.69;6200249;28;125876;-62
2021/06/03 01:45:57;;;;;;;;;15.00;14.80;;;;;16.21;45.58;99534.75;6208397;28;124817;-61
2021/06/03 01:49:02;;;;;;;;;16.00;14.75;;;;;16.19;45.43;99539.59;6197816;28;126151;-61
2021/06/03 01:52:07;;;;;;;;;15.00;14.40;;;;;16.17;45.37;99550.75;6211081;28;125551;-61
2021/06/03 01:55:13;;;;;;;;;15.00;13.00;;;;;16.13;45.56;99546.81;6209146;28;124812;-63
2021/06/03 01:58:17;;;;;;;;;19.00;17.40;;;;;16.09;45.52;99545.66;6203404;28;125922;-63
2021/06/03 02:01:21;;;;;;;;;18.00;15.60;;;;;16.03;45.69;99541.19;6189694;28;124631;-63
2021/06/03 02:04:24;;;;;;;;;17.00;15.50;;;;;16.03;45.51;99542.00;6198995;28;126370;-63
2021/06/03 02:07:29;;;;;;;;;20.40;19.00;;;;;15.99;46.19;99535.41;6206266;28;124165;-61
2021/06/03 02:10:33;;;;;;;;;19.00;17.00;;;;;15.98;46.18;99541.91;6203250;28;125922;-61
2021/06/03 02:13:42;;;;;;;;;16.00;16.00;;;;;15.95;46.73;99536.13;6206963;28;124754;-61
2021/06/03 02:16:57;;;;;;;;;18.00;17.00;;;;;15.96;46.43;99557.66;6209208;28;124461;-61
2021/06/03 02:20:09;;;;;;;;;17.00;15.60;;;;;15.94;46.25;99556.22;6180741;28;123227;-61
2021/06/03 02:23:16;;;;;;;;;20.00;19.00;;;;;15.91;46.20;99554.00;6208387;28;124802;-61
2021/06/03 02:26:23;;;;;;;;;18.33;16.33;;;;;15.87;46.40;99561.81;6184289;28;126289;-61
2021/06/03 02:29:29;;;;;;;;;20.50;17.50;;;;;15.85;46.63;99558.50;6200417;28;125008;-61
2021/06/03 02:32:45;;;;;;;;;18.75;17.75;;;;;15.86;46.61;99560.16;6203646;28;124888;-61
2021/06/03 02:35:48;;;;;;;;;19.25;18.00;;;;;15.82;46.55;99561.72;6203872;28;125016;-61
2021/06/03 02:38:51;;;;;;;;;18.00;16.00;;;;;15.79;46.70;99564.88;6191148;28;125073;-61
2021/06/03 02:41:55;;;;;;;;;18.00;17.00;;;;;15.81;46.50;99578.25;6206838;28;126279;-61
2021/06/03 02:44:58;;;;;;;;;19.00;18.00;;;;;15.75;46.70;99569.16;6194678;28;125334;-61
2021/06/03 02:48:01;;;;;;;;;18.00;16.50;;;;;15.69;46.72;99569.25;6206667;28;126195;-61
2021/06/03 02:51:12;;;;;;;;;18.80;16.40;;;;;15.68;46.76;99570.34;6210349;28;125431;-62
2021/06/03 02:54:16;;;;;;;;;20.40;19.00;;;;;15.68;47.15;99573.06;6212848;28;125061;-62
2021/06/03 02:57:23;;;;;;;;;19.00;18.00;;;;;15.53;47.31;99571.66;6206186;28;128075;-62
2021/06/03 03:00:29;;;;;;;;;18.50;17.00;;;;;15.55;47.43;99572.25;6197056;28;123765;-62
2021/06/03 03:03:33;;;;;;;;;21.00;19.00;;;;;15.57;47.37;99569.28;6211654;28;123433;-62
2021/06/03 03:06:37;;;;;;;;;23.00;21.00;;;;;15.53;47.53;99570.84;6209685;28;126140;-61
2021/06/03 03:09:39;;;;;;;;;19.75;18.00;;;;;15.55;47.42;99574.97;6196160;28;126163;-62
2021/06/03 03:12:43;;;;;;;;;19.00;18.00;;;;;15.56;47.46;99576.63;6212073;28;125758;-61
2021/06/03 03:15:48;;;;;;;;;21.00;20.00;;;;;15.59;47.34;99570.69;6211285;28;124662;-61
2021/06/03 03:18:52;;;;;;;;;20.00;18.00;;;;;15.59;47.26;99581.56;6211235;28;124935;-61
2021/06/03 03:21:55;;;;;;;;;17.00;16.00;;;;;15.64;47.38;99577.34;6211949;28;126490;-61
2021/06/03 03:24:59;;;;;;;;;18.80;17.00;;;;;15.70;47.48;99585.34;6209911;28;124802;-61
2021/06/03 03:28:06;;;;;;;;;20.00;18.80;;;;;15.76;47.26;99578.13;6202506;28;127220;-61
2021/06/03 03:31:09;;;;;;;;;18.00;16.00;;;;;15.78;47.07;99579.56;6221848;28;124833;-61
2021/06/03 03:34:12;;;;;;;;;16.00;15.00;;;;;15.78;47.26;99585.00;6201713;28;124226;-61
2021/06/03 03:37:15;;;;;;;;;17.40;17.00;;;;;15.90;46.88;99579.53;6201548;28;126385;-61
2021/06/03 03:40:21;;;;;;;;;17.00;16.75;;;;;16.00;47.54;99586.00;6203992;28;124422;-61
2021/06/03 03:43:26;;;;;;;;;16.20;15.20;;;;;16.10;47.18;99590.00;6206338;28;126592;-61
2021/06/03 03:46:30;;;;;;;;;20.20;18.00;;;;;16.15;47.35;99590.94;6192066;28;126061;-61
2021/06/03 03:49:33;;;;;;;;;19.00;16.75;;;;;16.25;47.39;99576.72;6209408;28;126618;-61
2021/06/03 03:52:39;;;;;;;;;18.60;17.00;;;;;16.29;47.29;99583.34;6236835;28;125059;-61
2021/06/03 03:55:42;;;;;;;;;20.80;19.00;;;;;16.44;47.02;99591.78;6204286;27;124646;-61
2021/06/03 03:58:48;;;;;;;;;21.00;18.00;;;;;16.53;46.77;99584.06;6197197;28;125336;-61
2021/06/03 04:01:53;;;;;;;;;18.00;16.33;;;;;16.67;46.44;99586.28;6193797;28;124675;-63
2021/06/03 04:04:57;;;;;;;;;19.60;19.00;;;;;16.76;46.69;99584.81;6212520;28;125161;-63
2021/06/03 04:08:00;;;;;;;;;21.00;18.60;;;;;16.89;46.81;99592.69;6203173;28;126408;-61
2021/06/03 04:11:03;;;;;;;;;22.00;21.00;;;;;17.03;47.00;99585.03;6195309;28;125056;-61
2021/06/03 04:14:13;;;;;;;;;22.60;21.00;;;;;17.18;46.59;99588.00;6186860;28;126089;-61
2021/06/03 04:17:16;;;;;;;;;23.00;22.00;;;;;17.35;46.17;99590.72;6184500;28;123961;-61
2021/06/03 04:20:22;;;;;;;;;23.40;21.40;;;;;17.54;45.69;99585.84;6203651;28;124939;-61
2021/06/03 04:23:27;;;;;;;;;24.00;23.00;;;;;17.72;45.21;99593.78;6196763;28;124786;-61
2021/06/03 04:26:31;;;;;;;;;23.20;22.00;;;;;17.89;45.03;99599.16;6202721;28;124134;-61
2021/06/03 04:29:35;;;;;;;;;26.80;24.00;;;;;18.08;44.55;99595.09;6197275;28;125241;-61
2021/06/03 04:32:38;;;;;;;;;25.00;23.00;;;;;18.26;43.95;99597.50;6210818;28;125849;-61
2021/06/03 04:35:41;;;;;;;;;22.60;22.00;;;;;18.23;42.85;99581.59;6209363;28;125952;-61
2021/06/03 04:38:44;;;;;;;;;24.00;23.00;;;;;18.44;42.78;99601.78;6202935;28;126838;-63
2021/06/03 04:41:46;;;;;;;;;25.00;23.50;;;;;18.55;43.06;99600.88;6212014;28;125135;-61
2021/06/03 04:44:50;;;;;;;;;23.60;22.00;;;;;18.71;42.95;99604.59;6195660;28;126348;-61
2021/06/03 04:47:53;;;;;;;;;23.60;22.00;;;;;18.83;42.68;99611.53;6185288;28;126016;-61
2021/06/03 04:51:01;;;;;;;;;24.60;23.00;;;;;18.92;42.41;99620.91;6226992;28;125772;-61
2021/06/03 04:54:04;;;;;;;;;26.00;25.00;;;;;18.95;42.28;99623.16;6218950;27;125219;-61
2021/06/03 04:57:07;;;;;;;;;23.50;22.25;;;;;19.02;42.55;99617.47;6184152;28;126666;-62
2021/06/03 05:00:14;;;;;;;;;26.00;24.00;;;;;19.09;42.78;99622.72;6201212;28;124996;-61
2021/06/03 05:03:17;;;;;;;;;27.00;23.00;;;;;19.18;42.60;99626.63;6208405;28;125897;-61
2021/06/03 05:06:20;;;;;;;;;23.40;22.40;;;;;19.16;42.31;99634.25;6206188;28;124729;-62
2021/06/03 05:09:23;;;;;;;;;25.60;22.60;;;;;19.25;41.73;99640.91;6191857;28;124774;-62
2021/06/03 05:12:26;;;;;;;;;22.00;20.60;;;;;19.32;42.04;99636.88;6210252;28;125113;-62
2021/06/03 05:15:30;;;;;;;;;24.00;22.60;;;;;19.41;42.22;99631.75;6209862;28;125681;-62
2021/06/03 05:18:33;;;;;;;;;24.80;22.20;;;;;19.48;42.40;99637.88;6197450;28;124533;-62
2021/06/03 05:21:36;;;;;;;;;24.25;22.50;;;;;19.52;41.58;99635.41;6211088;28;124700;-62
2021/06/03 05:24:39;;;;;;;;;24.00;22.00;;;;;19.56;41.29;99639.28;6198771;28;124660;-61
2021/06/03 05:27:42;;;;;;;;;22.60;21.00;;;;;19.58;41.26;99640.69;6200921;28;126053;-62
2021/06/03 05:30:46;;;;;;;;;25.75;23.75;;;;;19.62;41.23;99641.78;6213716;28;124857;-62
2021/06/03 05:33:49;;;;;;;;;23.00;22.00;;;;;19.67;41.40;99639.09;6208866;28;124807;-62
2021/06/03 05:36:52;;;;;;;;;23.00;21.40;;;;;19.78;41.60;99635.34;6210893;28;126179;-62
2021/06/03 05:39:55;;;;;;;;;23.00;21.00;;;;;19.83;41.10;99642.78;6197969;28;125235;-62
2021/06/03 05:42:59;;;;;;;;;24.00;20.60;;;;;19.93;41.20;99645.56;6208964;28;123905;-61
2021/06/03 05:46:03;;;;;;;;;22.00;20.20;;;;;20.08;41.01;99645.66;6187680;28;124813;-61
2021/06/03 05:49:08;;;;;;;;;21.40;20.00;;;;;20.21;40.46;99644.34;6190623;28;125968;-62
2021/06/03 05:52:11;;;;;;;;;23.00;23.00;;;;;20.37;40.57;99648.84;6209897;28;124577;-62
2021/06/03 05:55:16;;;;;;;;;24.00;22.00;;;;;20.59;40.53;99652.22;6201501;28;124505;-61
2021/06/03 05:58:18;;;;;;;;;22.00;21.00;;;;;20.65;40.88;99639.38;6199520;28;124722;-61
2021/06/03 06:01:24;;;;;;;;;18.50;17.50;;;;;20.90;39.29;99663.28;6207927;28;127746;-61
2021/06/03 06:07:48;;;;;;;;;16.00;15.80;;;;;21.03;36.87;99654.53;6207438;28;124617;-62
2021/06/03 06:10:50;;;;;;;;;15.75;14.75;;;;;21.21;36.91;99658.72;6231381;28;125120;-61
2021/06/03 06:13:53;;;;;;;;;14.00;14.00;;;;;21.38;36.25;99662.84;6224419;27;126335;-61
2021/06/03 06:16:57;;;;;;;;;17.40;15.40;;;;;21.47;36.21;99660.38;6213758;28;125191;-61
2021/06/03 06:20:00;;;;;;;;;17.60;16.60;;;;;21.53;36.33;99659.28;6203644;28;126014;-61
2021/06/03 06:23:05;;;;;;;;;17.40;15.40;;;;;21.66;36.66;99664.22;6215016;28;126048;-62
2021/06/03 06:26:08;;;;;;;;;16.00;13.00;;;;;21.82;36.02;99656.78;6214886;28;126119;-61
2021/06/03 06:29:11;;;;;;;;;15.50;14.50;;;;;21.96;37.15;99666.94;6200290;28;126056;-61
2021/06/03 06:32:15;;;;;;;;;14.00;13.50;;;;;22.15;37.39;99653.44;6192701;28;126388;-62
2021/06/03 06:35:18;;;;;;;;;15.60;14.60;;;;;22.32;36.72;99664.97;6193573;28;124633;-61
2021/06/03 06:38:22;;;;;;;;;16.00;16.00;;;;;22.46;36.32;99671.50;6205274;28;126872;-61
2021/06/03 06:41:25;;;;;;;;;15.00;14.40;;;;;22.64;35.20;99671.97;6210382;28;124710;-61
2021/06/03 06:44:28;;;;;;;;;14.60;14.60;;;;;22.77;35.12;99661.19;6212951;28;125240;-62
2021/06/03 06:47:33;;;;;;;;;17.00;15.00;;;;;22.96;36.06;99677.06;6208723;28;125246;-61
2021/06/03 06:50:38;;;;;;;;;12.00;11.00;;;;;23.17;35.95;99676.66;6207941;28;125959;-61
2021/06/03 06:53:40;;;;;;;;;12.00;11.00;;;;;23.42;34.79;99666.56;6213931;28;124875;-63
2021/06/03 06:56:43;;;;;;;;;14.00;13.00;;;;;23.39;33.52;99667.16;6207617;28;126428;-61
2021/06/03 06:59:46;;;;;;;;;10.00;10.00;;;;;23.54;34.12;99665.16;6199729;28;126456;-60
2021/06/03 07:02:50;;;;;;;;;14.00;13.00;;;;;23.78;33.96;99669.88;6213523;28;126390;-61
2021/06/03 07:05:52;;;;;;;;;10.20;10.00;;;;;23.87;32.08;99665.41;6212054;28;124714;-61
2021/06/03 07:08:56;;;;;;;;;8.40;8.00;;;;;24.09;31.86;99660.22;6198032;28;125730;-61
2021/06/03 07:11:59;;;;;;;;;9.00;8.00;;;;;24.26;31.28;99673.56;6201140;28;126868;-61
2021/06/03 07:15:03;;;;;;;;;9.60;8.40;;;;;24.55;31.69;99674.31;6187158;28;126540;-61
2021/06/03 07:18:07;;;;;;;;;6.00;6.00;;;;;24.79;30.35;99666.03;6191470;28;125963;-61
2021/06/03 07:21:10;;;;;;;;;10.00;10.00;;;;;24.99;31.23;99674.88;6212741;27;125089;-60
2021/06/03 07:24:13;;;;;;;;;8.00;8.00;;;;;25.15;28.84;99675.47;6211941;28;126321;-61
2021/06/03 07:27:15;;;;;;;;;10.00;9.40;;;;;25.40;30.02;99669.59;6209192;28;124840;-61
2021/06/03 07:30:20;;;;;;;;;9.80;9.80;;;;;25.67;29.96;99676.34;6205112;28;126167;-61
2021/06/03 07:33:24;;;;;;;;;10.00;9.80;;;;;25.91;30.03;99668.75;6212297;28;124749;-62
2021/06/03 07:36:27;;;;;;;;;9.50;9.00;;;;;26.07;28.36;99659.06;6212184;28;126820;-62
2021/06/03 07:39:30;;;;;;;;;7.00;7.00;;;;;26.28;27.21;99667.81;6211695;28;126156;-61
2021/06/03 07:42:32;;;;;;;;;9.00;8.00;;;;;26.17;26.68;99664.38;6187296;28;124528;-61
2021/06/03 07:45:37;;;;;;;;;8.00;8.00;;;;;26.29;27.41;99669.47;6187626;28;126116;-61
2021/06/03 07:48:41;;;;;;;;;6.75;6.75;;;;;26.44;27.67;99662.81;6188381;28;127167;-62
2021/06/03 07:51:44;;;;;;;;;8.00;8.00;;;;;26.50;25.30;99648.56;6211511;28;126050;-61
2021/06/03 07:54:47;;;;;;;;;10.40;10.00;;;;;26.61;26.90;99635.34;6211697;28;126612;-62
2021/06/03 07:57:52;;;;;;;;;8.00;7.60;;;;;26.93;26.55;99670.34;6186270;28;125532;-62
2021/06/03 08:00:56;;;;;;;;;8.00;7.00;;;;;27.19;26.80;99667.81;6208295;28;126387;-61
2021/06/03 08:04:00;;;;;;;;;7.00;6.50;;;;;27.45;25.72;99664.16;6211391;28;124842;-61
2021/06/03 08:07:04;;;;;;;;;7.00;6.40;;;;;27.71;26.41;99663.56;6209967;28;126878;-62
2021/06/03 08:10:10;;;;;;;;;6.00;6.00;;;;;27.92;24.68;99664.66;6199654;28;125048;-62
2021/06/03 08:13:13;;;;;;;;;10.00;8.00;;;;;28.18;25.39;99671.19;6211107;28;125586;-62
2021/06/03 08:16:18;;;;;;;;;5.00;5.00;;;;;28.42;23.79;99670.81;6210992;28;124278;-62
2021/06/03 08:19:23;;;;;;;;;6.60;6.00;;;;;28.47;22.50;99675.38;6208443;28;124754;-61
2021/06/03 08:22:25;;;;;;;;;8.00;7.40;;;;;28.57;23.08;99683.41;6211128;28;125935;-61
2021/06/03 08:25:28;;;;;;;;;7.40;7.00;;;;;28.62;22.35;99669.41;6211152;28;126946;-62
2021/06/03 08:28:31;;;;;;;;;6.40;6.40;;;;;28.52;22.75;99672.47;6198224;28;127382;-62
2021/06/03 08:31:34;;;;;;;;;6.40;6.40;;;;;28.53;23.12;99668.56;6191860;28;126705;-62
2021/06/03 08:34:38;;;;;;;;;7.80;7.00;;;;;28.54;22.43;99667.44;6184203;28;127393;-62
2021/06/03 08:37:42;;;;;;;;;7.00;7.00;;;;;28.75;23.44;99671.25;6184720;28;125140;-62
2021/06/03 08:40:48;;;;;;;;;5.00;5.00;;;;;29.01;23.53;99672.13;6202034;28;126040;-62
2021/06/03 08:43:51;;;;;;;;;6.20;6.20;;;;;29.30;22.65;99671.50;6210664;28;124356;-61
2021/06/03 08:46:54;;;;;;;;;7.00;6.40;;;;;29.53;23.09;99666.63;6208991;28;123332;-61
2021/06/03 08:49:58;;;;;;;;;6.00;5.00;;;;;29.47;20.51;99648.50;6199360;28;126094;-61
2021/06/03 08:53:01;;;;;;;;;6.00;5.00;;;;;29.65;21.73;99669.56;6210716;28;126256;-62
2021/06/03 08:56:15;;;;;;;;;6.00;6.00;;;;;29.74;21.71;99664.81;6210921;28;124858;-62
2021/06/03 08:59:17;;;;;;;;;8.00;7.00;;;;;29.80;20.88;99662.66;6201218;28;126444;-62
2021/06/03 09:02:20;;;;;;;;;5.00;5.00;;;;;29.63;20.50;99666.28;6210792;28;126386;-63
2021/06/03 09:05:25;;;;;;;;;6.00;5.00;;;;;29.22;21.66;99658.44;6210440;28;125292;-62
2021/06/03 09:08:29;;;;;;;;;5.00;5.00;;;;;29.08;20.34;99643.88;6197446;28;126018;-62
2021/06/03 09:11:33;;;;;;;;;6.00;6.00;;;;;29.09;20.73;99657.44;6209764;28;126672;-62
2021/06/03 09:14:36;;;;;;;;;6.40;6.40;;;;;29.37;21.44;99651.59;6208985;28;124668;-62
2021/06/03 09:17:45;;;;;;;;;4.00;4.00;;;;;29.49;20.13;99643.41;6204027;28;124945;-62
2021/06/03 09:20:49;;;;;;;;;4.40;4.40;;;;;29.75;20.54;99652.53;6201919;28;126305;-62
2021/06/03 09:23:58;;;;;;;;;6.00;5.40;;;;;29.89;19.57;99653.19;6210237;28;127486;-62
2021/06/03 09:27:02;;;;;;;;;6.00;6.00;;;;;29.94;18.93;99658.56;6209874;28;126916;-61
2021/06/03 09:30:06;;;;;;;;;7.00;6.00;;;;;29.82;20.26;99663.13;6197364;28;125793;-61
2021/06/03 09:33:09;;;;;;;;;7.00;6.00;;;;;29.68;20.12;99650.25;6204775;28;125132;-61
2021/06/03 09:36:15;;;;;;;;;5.00;5.00;;;;;29.59;19.82;99654.19;6208115;28;124524;-61
2021/06/03 09:39:24;;;;;;;;;6.60;5.60;;;;;29.68;21.54;99647.47;6194241;28;124823;-62
2021/06/03 09:42:26;;;;;;;;;6.00;5.00;;;;;30.07;20.50;99653.94;6193139;28;125385;-62
2021/06/03 09:45:53;;;;;;;;;6.00;4.00;;;;;30.06;18.65;99657.88;6207706;28;126296;-62
2021/06/03 09:48:56;;;;;;;;;6.60;5.00;;;;;30.48;20.45;99647.75;6196962;28;124612;-62
2021/06/03 09:52:03;;;;;;;;;5.00;5.00;;;;;30.85;19.46;99643.28;6210908;28;126867;-62
2021/06/03 09:55:10;;;;;;;;;5.00;5.00;;;;;31.22;19.31;99642.41;6208965;28;126163;-62
2021/06/03 09:58:38;;;;;;;;;5.80;5.00;;;;;31.05;17.03;99633.34;6200070;28;126003;-62
2021/06/03 10:01:45;;;;;;;;;5.60;5.00;;;;;30.65;17.28;99636.53;6208179;28;126200;-62
2021/06/03 10:04:49;;;;;;;;;4.20;4.00;;;;;30.49;19.03;99643.84;6207165;28;126505;-62
2021/06/03 10:07:56;;;;;;;;;5.50;5.00;;;;;29.76;18.73;99636.69;6201176;28;126001;-62
2021/06/03 10:10:59;;;;;;;;;6.00;6.00;;;;;29.62;19.52;99637.66;6205845;28;125999;-62
2021/06/03 10:14:09;;;;;;;;;7.00;5.40;;;;;29.55;20.48;99620.69;6208537;28;126806;-61
2021/06/03 10:17:17;;;;;;;;;4.80;4.80;;;;;29.20;20.40;99642.09;6204643;28;126536;-61
2021/06/03 10:20:22;;;;;;;;;6.00;6.00;;;;;29.18;21.44;99638.00;6200221;28;126132;-62
2021/06/03 10:23:29;;;;;;;;;9.00;8.00;;;;;28.70;20.67;99638.06;6210646;28;125976;-63
2021/06/03 10:26:54;;;;;;;;;6.00;5.75;;;;;28.96;21.75;99635.38;6209523;28;125611;-63
2021/06/03 10:29:58;;;;;;;;;6.00;6.00;;;;;29.25;22.24;99628.03;6196332;28;126841;-63
2021/06/03 10:33:04;;;;;;;;;6.00;6.00;;;;;29.53;21.72;99616.59;6190174;28;125342;-63
2021/06/03 10:36:09;;;;;;;;;7.00;6.00;;;;;30.00;21.76;99626.66;6202484;28;125733;-61
2021/06/03 10:39:13;;;;;;;;;5.00;4.00;;;;;30.19;19.99;99633.78;6199247;28;125024;-62
2021/06/03 10:42:19;;;;;;;;;6.00;6.00;;;;;30.04;19.70;99624.03;6209774;28;127139;-62
2021/06/03 10:45:24;;;;;;;;;5.00;5.00;;;;;29.62;20.13;99629.34;6208997;28;124517;-62
2021/06/03 10:48:27;;;;;;;;;5.00;4.20;;;;;29.87;20.32;99626.81;6198666;28;125327;-62
2021/06/03 10:51:30;;;;;;;;;6.00;6.00;;;;;29.99;19.23;99622.25;6212361;28;126082;-62
2021/06/03 10:54:49;;;;;;;;;6.00;6.00;;;;;29.96;19.60;99613.75;6213596;28;124764;-62
2021/06/03 10:57:54;;;;;;;;;5.00;5.00;;;;;29.92;20.48;99632.22;6204044;28;124977;-61
2021/06/03 11:01:01;;;;;;;;;6.00;6.00;;;;;30.16;21.13;99618.56;6209037;28;125566;-61
2021/06/03 11:04:09;;;;;;;;;5.80;5.80;;;;;30.43;20.32;99622.88;6212747;28;125948;-63
2021/06/03 11:07:13;;;;;;;;;6.00;6.00;;;;;30.51;19.74;99628.41;6208387;28;125961;-62
2021/06/03 11:10:26;;;;;;;;;6.00;6.00;;;;;30.93;21.23;99625.72;6201292;28;126367;-61
2021/06/03 11:13:29;;;;;;;;;6.00;5.20;;;;;31.38;20.39;99620.28;6211986;28;125945;-61
2021/06/03 11:16:59;;;;;;;;;4.80;4.80;;;;;31.77;20.00;99622.53;6211308;28;127017;-61
2021/06/03 11:20:04;;;;;;;;;5.20;5.00;;;;;31.89;19.96;99626.50;6176997;28;125720;-61
2021/06/03 11:23:45;;;;;;;;;5.00;5.00;;;;;31.70;19.50;99618.69;6210196;28;126483;-61
2021/06/03 11:26:52;;;;;;;;;5.60;5.20;;;;;31.64;18.92;99611.69;6209311;28;124850;-61
2021/06/03 11:30:00;;;;;;;;;4.40;4.40;;;;;31.83;19.43;99606.41;6197046;28;124643;-61
2021/06/03 11:33:03;;;;;;;;;6.00;6.00;;;;;32.06;19.35;99602.00;6210011;28;124805;-61
2021/06/03 11:36:29;;;;;;;;;5.00;5.00;;;;;32.23;17.61;99603.81;6209679;28;126668;-61
2021/06/03 11:39:41;;;;;;;;;5.60;5.60;;;;;32.07;18.64;99611.19;6199015;28;126039;-61
2021/06/03 11:42:48;;;;;;;;;5.20;5.00;;;;;31.70;18.82;99605.56;6210381;28;126083;-63
2021/06/03 11:45:50;;;;;;;;;6.00;6.00;;;;;31.26;18.28;99604.34;6212040;28;125891;-61
2021/06/03 11:48:55;;;;;;;;;6.00;5.00;;;;;31.12;18.87;99600.19;6200303;28;125419;-62
2021/06/03 11:52:09;;;;;;;;;5.00;5.00;;;;;31.14;18.65;99604.25;6212210;28;124883;-62
2021/06/03 11:55:12;;;;;;;;;5.75;5.00;;;;;31.20;19.46;99604.88;6207983;28;124666;-62
2021/06/03 11:58:22;;;;;;;;;5.00;4.40;;;;;31.19;19.62;99598.47;6203784;28;124414;-62
2021/06/03 12:01:36;;;;;;;;;6.00;6.00;;;;;31.17;18.47;99600.81;6211098;28;126491;-61
2021/06/03 12:05:16;;;;;;;;;6.00;6.00;;;;;31.24;18.12;99601.06;6212005;28;125129;-62
2021/06/03 12:08:33;;;;;;;;;5.00;5.00;;;;;31.18;19.54;99590.50;6202778;28;126025;-63
2021/06/03 12:11:44;;;;;;;;;5.00;5.00;;;;;31.25;19.27;99583.19;6213052;28;125655;-62
2021/06/03 12:14:49;;;;;;;;;5.00;4.80;;;;;30.94;18.43;99580.78;6213228;28;127040;-61
2021/06/03 12:17:55;;;;;;;;;7.00;6.00;;;;;30.56;19.14;99594.00;6208235;28;124510;-61
2021/06/03 12:20:59;;;;;;;;;5.00;5.00;;;;;30.60;18.64;99591.38;6201161;28;126463;-62
2021/06/03 12:24:03;;;;;;;;;6.00;6.00;;;;;30.62;19.16;99594.63;6188142;28;126235;-62
2021/06/03 12:27:07;;;;;;;;;5.75;5.00;;;;;30.44;18.89;99586.38;6200096;28;125184;-62
2021/06/03 12:30:15;;;;;;;;;6.00;5.00;;;;;30.42;19.96;99576.72;6200255;28;125628;-62
2021/06/03 12:33:25;;;;;;;;;4.60;4.60;;;;;30.66;19.51;99576.09;6189549;28;126040;-62
2021/06/03 12:36:31;;;;;;;;;6.00;6.00;;;;;30.92;18.96;99576.75;6186608;28;125971;-62
2021/06/03 12:39:37;;;;;;;;;5.25;5.25;;;;;30.95;19.02;99574.09;6195852;28;124808;-61
2021/06/03 12:42:39;;;;;;;;;6.80;6.00;;;;;31.17;18.97;99581.31;6212471;28;123511;-63
2021/06/03 12:45:47;;;;;;;;;4.00;4.00;;;;;31.40;19.46;99584.53;6212368;28;125287;-63
2021/06/03 12:49:00;;;;;;;;;6.00;5.75;;;;;31.65;19.16;99563.97;6197416;28;124638;-63
2021/06/03 12:52:07;;;;;;;;;6.20;5.80;;;;;31.86;19.33;99565.88;6211789;28;125967;-63
2021/06/03 12:55:10;;;;;;;;;4.00;4.00;;;;;31.90;18.71;99569.59;6209579;28;124638;-62
2021/06/03 12:58:15;;;;;;;;;6.25;6.00;;;;;32.05;18.73;99577.28;6201500;28;126354;-63
2021/06/03 13:01:20;;;;;;;;;4.25;4.00;;;;;32.05;17.14;99566.13;6208673;28;124956;-63
2021/06/03 13:04:24;;;;;;;;;6.00;6.00;;;;;32.05;18.25;99564.16;6212045;28;126633;-63
2021/06/03 13:07:29;;;;;;;;;5.00;4.80;;;;;31.17;17.27;99563.78;6205669;28;126508;-63
2021/06/03 13:10:32;;;;;;;;;5.00;5.00;;;;;30.99;18.06;99568.63;6204475;28;124743;-62
2021/06/03 13:13:35;;;;;;;;;4.00;4.00;;;;;30.98;18.37;99558.69;6187061;28;127819;-63
2021/06/03 13:16:40;;;;;;;;;4.20;4.20;;;;;30.65;19.00;99549.41;6195808;28;124912;-63
2021/06/03 13:19:46;;;;;;;;;6.00;5.00;;;;;30.54;19.23;99547.03;6198425;28;126616;-62
2021/06/03 13:22:50;;;;;;;;;5.20;5.00;;;;;30.16;18.15;99551.81;6211760;28;124574;-63
2021/06/03 13:25:55;;;;;;;;;4.00;4.00;;;;;29.79;18.96;99559.00;6211747;28;124617;-63
2021/06/03 13:28:59;;;;;;;;;6.00;6.00;;;;;29.44;19.37;99547.16;6199223;28;126251;-63
2021/06/03 13:32:04;;;;;;;;;6.40;5.40;;;;;29.50;19.25;99545.03;6207902;28;123960;-62
2021/06/03 13:35:09;;;;;;;;;5.00;5.00;;;;;29.25;19.76;99549.47;6224242;28;125834;-61
2021/06/03 13:38:12;;;;;;;;;6.00;6.00;;;;;29.47;21.29;99557.59;6196550;28;125017;-61
2021/06/03 13:41:15;;;;;;;;;5.80;5.00;;;;;29.83;19.80;99543.28;6203872;28;124781;-62
2021/06/03 13:44:17;;;;;;;;;5.00;5.00;;;;;30.13;19.00;99544.97;6211895;28;125643;-61
2021/06/03 13:47:41;;;;;;;;;6.00;5.20;;;;;30.50;19.69;99551.66;6205431;28;125166;-61
2021/06/03 13:50:50;;;;;;;;;7.00;6.00;;;;;30.56;18.93;99549.50;6202996;28;126382;-62
2021/06/03 13:53:52;;;;;;;;;5.00;5.00;;;;;30.46;18.77;99536.78;6209773;28;126048;-61
2021/06/03 13:56:55;;;;;;;;;4.00;4.00;;;;;30.13;18.82;99536.63;6209576;28;124568;-61
2021/06/03 13:59:58;;;;;;;;;5.00;4.00;;;;;30.22;19.44;99533.81;6193419;28;125893;-62
2021/06/03 14:03:12;;;;;;;;;5.80;5.40;;;;;30.40;19.51;99540.06;6209237;28;126220;-61
2021/06/03 14:06:18;;;;;;;;;4.00;4.00;;;;;30.17;19.41;99524.81;6211287;28;125225;-61
2021/06/03 14:09:30;;;;;;;;;5.00;4.00;;;;;30.38;21.40;99532.06;6198711;28;124495;-62
2021/06/03 14:12:40;;;;;;;;;5.00;5.00;;;;;30.37;19.63;99535.19;6210898;28;126976;-62
2021/06/03 14:15:44;;;;;;;;;7.00;7.00;;;;;30.17;19.97;99535.94;6211318;28;126187;-62